sensor_id;sensor_type;location;lat;lon;timestamp;P1;durP1;ratioP1;P2;durP2;ratioP2
70946;SDS011;58605;48.700;8.760;2022-07-06T00:01:28;5.87;;;5.43;;
70946;SDS011;58605;48.700;8.760;2022-07-06T00:03:54;6.33;;;5.73;;
70946;SDS011;58605;48.700;8.760;2022-07-06T00:06:21;6.40;;;4.87;;
70946;SDS011;58605;48.700;8.760;2022-07-06T00:08:48;6.00;;;5.40;;
70946;SDS011;58605;48.700;8.760;2022-07-06T00:11:14;6.50;;;5.20;;
70946;SDS011;58605;48.700;8.760;2022-07-06T00:13:40;5.00;;;4.60;;
70946;SDS011;58605;48.700;8.760;2022-07-06T00:16:06;5.93;;;5.43;;
70946;SDS011;58605;48.700;8.760;2022-07-06T00:18:32;6.63;;;5.27;;
70946;SDS011;58605;48.700;8.760;2022-07-06T00:20:58;5.90;;;5.40;;
70946;SDS011;58605;48.700;8.760;2022-07-06T00:23:25;5.97;;;5.43;;
70946;SDS011;58605;48.700;8.760;2022-07-06T00:25:51;6.10;;;5.50;;
70946;SDS011;58605;48.700;8.760;2022-07-06T00:28:17;7.63;;;6.30;;
70946;SDS011;58605;48.700;8.760;2022-07-06T00:30:43;5.70;;;5.20;;
70946;SDS011;58605;48.700;8.760;2022-07-06T00:33:09;6.00;;;5.40;;
70946;SDS011;58605;48.700;8.760;2022-07-06T00:35:35;5.47;;;4.93;;
70946;SDS011;58605;48.700;8.760;2022-07-06T00:38:01;4.87;;;4.33;;
70946;SDS011;58605;48.700;8.760;2022-07-06T00:40:29;5.60;;;5.10;;
70946;SDS011;58605;48.700;8.760;2022-07-06T00:42:55;6.10;;;5.50;;
70946;SDS011;58605;48.700;8.760;2022-07-06T00:45:22;6.73;;;5.23;;
70946;SDS011;58605;48.700;8.760;2022-07-06T00:47:48;4.77;;;4.37;;
70946;SDS011;58605;48.700;8.760;2022-07-06T00:50:15;6.03;;;5.53;;
70946;SDS011;58605;48.700;8.760;2022-07-06T00:52:46;6.17;;;5.67;;
70946;SDS011;58605;48.700;8.760;2022-07-06T00:55:13;6.17;;;5.57;;
70946;SDS011;58605;48.700;8.760;2022-07-06T00:57:41;6.63;;;6.03;;
70946;SDS011;58605;48.700;8.760;2022-07-06T01:00:08;5.53;;;5.03;;
70946;SDS011;58605;48.700;8.760;2022-07-06T01:02:45;6.53;;;6.00;;
70946;SDS011;58605;48.700;8.760;2022-07-06T01:05:14;5.90;;;5.40;;
70946;SDS011;58605;48.700;8.760;2022-07-06T01:07:41;6.50;;;6.00;;
70946;SDS011;58605;48.700;8.760;2022-07-06T01:10:09;6.07;;;5.57;;
70946;SDS011;58605;48.700;8.760;2022-07-06T01:12:36;6.50;;;6.00;;
70946;SDS011;58605;48.700;8.760;2022-07-06T01:15:05;6.53;;;5.93;;
70946;SDS011;58605;48.700;8.760;2022-07-06T01:17:33;7.67;;;6.53;;
70946;SDS011;58605;48.700;8.760;2022-07-06T01:20:06;8.50;;;5.90;;
70946;SDS011;58605;48.700;8.760;2022-07-06T01:22:35;6.30;;;5.83;;
70946;SDS011;58605;48.700;8.760;2022-07-06T01:25:01;6.87;;;6.30;;
70946;SDS011;58605;48.700;8.760;2022-07-06T01:27:28;6.37;;;5.40;;
70946;SDS011;58605;48.700;8.760;2022-07-06T01:29:55;6.17;;;5.60;;
70946;SDS011;58605;48.700;8.760;2022-07-06T01:32:21;6.23;;;5.63;;
70946;SDS011;58605;48.700;8.760;2022-07-06T01:34:47;6.50;;;5.83;;
70946;SDS011;58605;48.700;8.760;2022-07-06T01:37:14;5.40;;;5.00;;
70946;SDS011;58605;48.700;8.760;2022-07-06T01:39:40;6.70;;;5.23;;
70946;SDS011;58605;48.700;8.760;2022-07-06T01:42:06;5.40;;;5.00;;
70946;SDS011;58605;48.700;8.760;2022-07-06T01:44:33;7.90;;;5.53;;
70946;SDS011;58605;48.700;8.760;2022-07-06T01:46:59;11.53;;;6.07;;
70946;SDS011;58605;48.700;8.760;2022-07-06T01:49:25;6.43;;;5.83;;
70946;SDS011;58605;48.700;8.760;2022-07-06T01:51:50;5.73;;;5.13;;
70946;SDS011;58605;48.700;8.760;2022-07-06T01:54:18;6.97;;;6.37;;
70946;SDS011;58605;48.700;8.760;2022-07-06T01:56:44;7.80;;;5.90;;
70946;SDS011;58605;48.700;8.760;2022-07-06T01:59:11;6.70;;;5.80;;
70946;SDS011;58605;48.700;8.760;2022-07-06T02:01:37;6.43;;;5.50;;
70946;SDS011;58605;48.700;8.760;2022-07-06T02:04:03;6.43;;;5.63;;
70946;SDS011;58605;48.700;8.760;2022-07-06T02:06:29;7.00;;;6.33;;
70946;SDS011;58605;48.700;8.760;2022-07-06T02:08:55;7.17;;;5.90;;
70946;SDS011;58605;48.700;8.760;2022-07-06T02:11:24;7.17;;;6.47;;
70946;SDS011;58605;48.700;8.760;2022-07-06T02:13:50;7.43;;;6.73;;
70946;SDS011;58605;48.700;8.760;2022-07-06T02:16:16;8.37;;;5.50;;
70946;SDS011;58605;48.700;8.760;2022-07-06T02:18:42;5.90;;;5.40;;
70946;SDS011;58605;48.700;8.760;2022-07-06T02:21:08;6.77;;;4.87;;
70946;SDS011;58605;48.700;8.760;2022-07-06T02:23:34;6.50;;;5.87;;
70946;SDS011;58605;48.700;8.760;2022-07-06T02:26:00;6.37;;;5.77;;
70946;SDS011;58605;48.700;8.760;2022-07-06T02:28:27;6.53;;;5.90;;
70946;SDS011;58605;48.700;8.760;2022-07-06T02:30:53;6.47;;;5.73;;
70946;SDS011;58605;48.700;8.760;2022-07-06T02:33:19;6.43;;;5.90;;
70946;SDS011;58605;48.700;8.760;2022-07-06T02:35:45;8.67;;;5.87;;
70946;SDS011;58605;48.700;8.760;2022-07-06T02:38:11;7.93;;;7.13;;
70946;SDS011;58605;48.700;8.760;2022-07-06T02:40:37;9.90;;;6.43;;
70946;SDS011;58605;48.700;8.760;2022-07-06T02:43:04;6.00;;;5.50;;
70946;SDS011;58605;48.700;8.760;2022-07-06T02:45:32;6.33;;;5.47;;
70946;SDS011;58605;48.700;8.760;2022-07-06T02:47:58;6.47;;;5.87;;
70946;SDS011;58605;48.700;8.760;2022-07-06T02:50:24;8.83;;;5.83;;
70946;SDS011;58605;48.700;8.760;2022-07-06T02:52:50;6.80;;;6.13;;
70946;SDS011;58605;48.700;8.760;2022-07-06T02:55:16;7.10;;;6.30;;
70946;SDS011;58605;48.700;8.760;2022-07-06T02:57:43;15.23;;;6.30;;
70946;SDS011;58605;48.700;8.760;2022-07-06T03:00:09;6.70;;;6.10;;
70946;SDS011;58605;48.700;8.760;2022-07-06T03:02:37;7.10;;;5.50;;
70946;SDS011;58605;48.700;8.760;2022-07-06T03:05:04;9.03;;;6.00;;
70946;SDS011;58605;48.700;8.760;2022-07-06T03:07:31;8.20;;;5.37;;
70946;SDS011;58605;48.700;8.760;2022-07-06T03:09:57;7.00;;;6.47;;
70946;SDS011;58605;48.700;8.760;2022-07-06T03:12:23;6.70;;;6.10;;
70946;SDS011;58605;48.700;8.760;2022-07-06T03:14:49;6.13;;;5.53;;
70946;SDS011;58605;48.700;8.760;2022-07-06T03:17:15;6.13;;;5.10;;
70946;SDS011;58605;48.700;8.760;2022-07-06T03:19:42;6.57;;;5.00;;
70946;SDS011;58605;48.700;8.760;2022-07-06T03:22:08;6.13;;;4.60;;
70946;SDS011;58605;48.700;8.760;2022-07-06T03:24:34;5.73;;;5.07;;
70946;SDS011;58605;48.700;8.760;2022-07-06T03:27:00;5.90;;;5.33;;
70946;SDS011;58605;48.700;8.760;2022-07-06T03:29:27;6.47;;;5.13;;
70946;SDS011;58605;48.700;8.760;2022-07-06T03:31:52;5.67;;;4.80;;
70946;SDS011;58605;48.700;8.760;2022-07-06T03:34:18;7.13;;;5.70;;
70946;SDS011;58605;48.700;8.760;2022-07-06T03:36:46;5.77;;;5.20;;
70946;SDS011;58605;48.700;8.760;2022-07-06T03:39:12;6.50;;;5.90;;
70946;SDS011;58605;48.700;8.760;2022-07-06T03:41:38;6.80;;;5.90;;
70946;SDS011;58605;48.700;8.760;2022-07-06T03:44:04;6.20;;;5.60;;
70946;SDS011;58605;48.700;8.760;2022-07-06T03:46:30;7.63;;;6.20;;
70946;SDS011;58605;48.700;8.760;2022-07-06T03:48:56;6.50;;;5.13;;
70946;SDS011;58605;48.700;8.760;2022-07-06T03:51:22;5.27;;;4.80;;
70946;SDS011;58605;48.700;8.760;2022-07-06T03:53:49;8.93;;;5.37;;
70946;SDS011;58605;48.700;8.760;2022-07-06T03:56:15;7.43;;;6.73;;
70946;SDS011;58605;48.700;8.760;2022-07-06T03:58:54;7.80;;;7.10;;
70946;SDS011;58605;48.700;8.760;2022-07-06T04:01:20;8.47;;;7.60;;
70946;SDS011;58605;48.700;8.760;2022-07-06T04:03:46;8.77;;;7.67;;
70946;SDS011;58605;48.700;8.760;2022-07-06T04:06:12;10.40;;;9.50;;
70946;SDS011;58605;48.700;8.760;2022-07-06T04:08:38;9.53;;;8.63;;
70946;SDS011;58605;48.700;8.760;2022-07-06T04:11:06;9.00;;;8.00;;
70946;SDS011;58605;48.700;8.760;2022-07-06T04:13:32;9.90;;;8.20;;
70946;SDS011;58605;48.700;8.760;2022-07-06T04:15:58;9.90;;;8.47;;
70946;SDS011;58605;48.700;8.760;2022-07-06T04:18:25;8.67;;;7.80;;
70946;SDS011;58605;48.700;8.760;2022-07-06T04:20:51;7.40;;;6.63;;
70946;SDS011;58605;48.700;8.760;2022-07-06T04:23:17;7.27;;;5.97;;
70946;SDS011;58605;48.700;8.760;2022-07-06T04:25:43;6.40;;;5.80;;
70946;SDS011;58605;48.700;8.760;2022-07-06T04:28:11;6.30;;;5.70;;
70946;SDS011;58605;48.700;8.760;2022-07-06T04:30:37;6.70;;;6.00;;
70946;SDS011;58605;48.700;8.760;2022-07-06T04:33:03;6.10;;;5.43;;
70946;SDS011;58605;48.700;8.760;2022-07-06T04:35:29;6.30;;;5.70;;
70946;SDS011;58605;48.700;8.760;2022-07-06T04:37:55;6.83;;;6.10;;
70946;SDS011;58605;48.700;8.760;2022-07-06T04:40:21;7.17;;;5.77;;
70946;SDS011;58605;48.700;8.760;2022-07-06T04:42:47;8.43;;;6.43;;
70946;SDS011;58605;48.700;8.760;2022-07-06T04:45:17;6.23;;;5.70;;
70946;SDS011;58605;48.700;8.760;2022-07-06T04:47:43;8.33;;;6.47;;
70946;SDS011;58605;48.700;8.760;2022-07-06T04:50:09;7.47;;;6.67;;
70946;SDS011;58605;48.700;8.760;2022-07-06T04:52:36;9.43;;;5.80;;
70946;SDS011;58605;48.700;8.760;2022-07-06T04:55:02;8.03;;;5.70;;
70946;SDS011;58605;48.700;8.760;2022-07-06T04:57:30;6.47;;;5.90;;
70946;SDS011;58605;48.700;8.760;2022-07-06T04:59:56;6.53;;;5.87;;
70946;SDS011;58605;48.700;8.760;2022-07-06T05:02:24;6.67;;;6.03;;
70946;SDS011;58605;48.700;8.760;2022-07-06T05:04:50;9.87;;;6.63;;
70946;SDS011;58605;48.700;8.760;2022-07-06T05:07:16;8.70;;;6.20;;
70946;SDS011;58605;48.700;8.760;2022-07-06T05:09:42;8.20;;;5.77;;
70946;SDS011;58605;48.700;8.760;2022-07-06T05:12:09;9.03;;;6.13;;
70946;SDS011;58605;48.700;8.760;2022-07-06T05:14:35;8.17;;;6.07;;
70946;SDS011;58605;48.700;8.760;2022-07-06T05:17:01;6.60;;;5.90;;
70946;SDS011;58605;48.700;8.760;2022-07-06T05:19:29;7.30;;;6.03;;
70946;SDS011;58605;48.700;8.760;2022-07-06T05:21:55;6.60;;;5.63;;
70946;SDS011;58605;48.700;8.760;2022-07-06T05:24:21;6.80;;;5.90;;
70946;SDS011;58605;48.700;8.760;2022-07-06T05:26:47;5.83;;;5.13;;
70946;SDS011;58605;48.700;8.760;2022-07-06T05:29:13;9.97;;;6.20;;
70946;SDS011;58605;48.700;8.760;2022-07-06T05:31:39;6.27;;;5.43;;
70946;SDS011;58605;48.700;8.760;2022-07-06T05:34:05;6.53;;;5.67;;
70946;SDS011;58605;48.700;8.760;2022-07-06T05:36:33;5.40;;;4.73;;
70946;SDS011;58605;48.700;8.760;2022-07-06T05:38:59;6.93;;;5.70;;
70946;SDS011;58605;48.700;8.760;2022-07-06T05:41:25;7.33;;;5.97;;
70946;SDS011;58605;48.700;8.760;2022-07-06T05:43:51;8.43;;;5.77;;
70946;SDS011;58605;48.700;8.760;2022-07-06T05:46:17;8.80;;;5.83;;
70946;SDS011;58605;48.700;8.760;2022-07-06T05:48:42;6.07;;;5.47;;
70946;SDS011;58605;48.700;8.760;2022-07-06T05:51:27;5.77;;;5.17;;
70946;SDS011;58605;48.700;8.760;2022-07-06T05:53:55;7.17;;;5.47;;
70946;SDS011;58605;48.700;8.760;2022-07-06T05:56:21;6.97;;;5.07;;
70946;SDS011;58605;48.700;8.760;2022-07-06T05:58:47;9.10;;;4.87;;
70946;SDS011;58605;48.700;8.760;2022-07-06T06:01:13;6.20;;;5.50;;
70946;SDS011;58605;48.700;8.760;2022-07-06T06:03:39;7.37;;;5.43;;
70946;SDS011;58605;48.700;8.760;2022-07-06T06:06:05;7.83;;;5.43;;
70946;SDS011;58605;48.700;8.760;2022-07-06T06:08:32;6.33;;;4.80;;
70946;SDS011;58605;48.700;8.760;2022-07-06T06:10:59;6.80;;;5.07;;
70946;SDS011;58605;48.700;8.760;2022-07-06T06:13:25;6.17;;;4.80;;
70946;SDS011;58605;48.700;8.760;2022-07-06T06:15:51;6.53;;;5.13;;
70946;SDS011;58605;48.700;8.760;2022-07-06T06:18:17;14.43;;;5.40;;
70946;SDS011;58605;48.700;8.760;2022-07-06T06:20:44;6.20;;;5.00;;
70946;SDS011;58605;48.700;8.760;2022-07-06T06:23:10;5.80;;;4.50;;
70946;SDS011;58605;48.700;8.760;2022-07-06T06:25:37;5.53;;;5.10;;
70946;SDS011;58605;48.700;8.760;2022-07-06T06:28:06;6.13;;;4.90;;
70946;SDS011;58605;48.700;8.760;2022-07-06T06:30:33;5.23;;;4.40;;
70946;SDS011;58605;48.700;8.760;2022-07-06T06:33:09;5.27;;;4.57;;
70946;SDS011;58605;48.700;8.760;2022-07-06T06:35:37;5.50;;;4.60;;
70946;SDS011;58605;48.700;8.760;2022-07-06T06:38:03;6.37;;;4.70;;
70946;SDS011;58605;48.700;8.760;2022-07-06T06:40:29;5.20;;;4.60;;
70946;SDS011;58605;48.700;8.760;2022-07-06T06:42:55;5.17;;;4.50;;
70946;SDS011;58605;48.700;8.760;2022-07-06T06:45:23;4.97;;;4.40;;
70946;SDS011;58605;48.700;8.760;2022-07-06T06:47:49;7.23;;;4.50;;
70946;SDS011;58605;48.700;8.760;2022-07-06T06:50:15;5.07;;;4.50;;
70946;SDS011;58605;48.700;8.760;2022-07-06T06:52:41;7.13;;;4.80;;
70946;SDS011;58605;48.700;8.760;2022-07-06T06:55:08;5.00;;;3.97;;
70946;SDS011;58605;48.700;8.760;2022-07-06T06:57:34;5.77;;;4.30;;
70946;SDS011;58605;48.700;8.760;2022-07-06T07:00:00;5.00;;;4.50;;
70946;SDS011;58605;48.700;8.760;2022-07-06T07:02:28;5.20;;;4.20;;
70946;SDS011;58605;48.700;8.760;2022-07-06T07:04:54;5.90;;;4.37;;
70946;SDS011;58605;48.700;8.760;2022-07-06T07:07:20;5.47;;;4.63;;
70946;SDS011;58605;48.700;8.760;2022-07-06T07:09:46;8.63;;;5.10;;
70946;SDS011;58605;48.700;8.760;2022-07-06T07:12:12;4.23;;;3.83;;
70946;SDS011;58605;48.700;8.760;2022-07-06T07:14:40;3.93;;;3.53;;
70946;SDS011;58605;48.700;8.760;2022-07-06T07:17:06;5.47;;;3.67;;
70946;SDS011;58605;48.700;8.760;2022-07-06T07:19:33;4.47;;;3.93;;
70946;SDS011;58605;48.700;8.760;2022-07-06T07:21:59;5.43;;;4.40;;
70946;SDS011;58605;48.700;8.760;2022-07-06T07:24:25;6.20;;;4.67;;
70946;SDS011;58605;48.700;8.760;2022-07-06T07:26:52;5.43;;;4.30;;
70946;SDS011;58605;48.700;8.760;2022-07-06T07:29:18;4.77;;;4.27;;
70946;SDS011;58605;48.700;8.760;2022-07-06T07:31:44;4.57;;;3.97;;
70946;SDS011;58605;48.700;8.760;2022-07-06T07:34:11;4.57;;;3.80;;
70946;SDS011;58605;48.700;8.760;2022-07-06T07:36:39;5.50;;;4.03;;
70946;SDS011;58605;48.700;8.760;2022-07-06T07:39:05;7.37;;;4.73;;
70946;SDS011;58605;48.700;8.760;2022-07-06T07:41:37;4.70;;;3.93;;
70946;SDS011;58605;48.700;8.760;2022-07-06T07:44:03;5.97;;;4.13;;
70946;SDS011;58605;48.700;8.760;2022-07-06T07:46:29;6.00;;;3.77;;
70946;SDS011;58605;48.700;8.760;2022-07-06T07:48:55;4.27;;;3.70;;
70946;SDS011;58605;48.700;8.760;2022-07-06T07:51:21;3.97;;;3.47;;
70946;SDS011;58605;48.700;8.760;2022-07-06T07:53:49;7.63;;;3.33;;
70946;SDS011;58605;48.700;8.760;2022-07-06T07:56:15;3.93;;;3.50;;
70946;SDS011;58605;48.700;8.760;2022-07-06T07:58:41;4.40;;;3.33;;
70946;SDS011;58605;48.700;8.760;2022-07-06T08:01:07;5.50;;;3.37;;
70946;SDS011;58605;48.700;8.760;2022-07-06T08:03:33;5.65;;;3.78;;
70946;SDS011;58605;48.700;8.760;2022-07-06T08:05:59;4.85;;;3.40;;
70946;SDS011;58605;48.700;8.760;2022-07-06T08:08:25;4.07;;;3.53;;
70946;SDS011;58605;48.700;8.760;2022-07-06T08:10:59;6.65;;;3.83;;
70946;SDS011;58605;48.700;8.760;2022-07-06T08:13:32;5.57;;;3.40;;
70946;SDS011;58605;48.700;8.760;2022-07-06T08:15:59;5.18;;;3.70;;
70946;SDS011;58605;48.700;8.760;2022-07-06T08:18:25;3.95;;;3.38;;
70946;SDS011;58605;48.700;8.760;2022-07-06T08:20:51;6.57;;;3.38;;
70946;SDS011;58605;48.700;8.760;2022-07-06T08:23:18;5.25;;;3.40;;
70946;SDS011;58605;48.700;8.760;2022-07-06T08:25:44;4.97;;;3.40;;
70946;SDS011;58605;48.700;8.760;2022-07-06T08:28:11;4.35;;;3.30;;
70946;SDS011;58605;48.700;8.760;2022-07-06T08:30:37;4.88;;;3.25;;
70946;SDS011;58605;48.700;8.760;2022-07-06T08:33:03;3.88;;;3.15;;
70946;SDS011;58605;48.700;8.760;2022-07-06T08:35:29;6.53;;;3.60;;
70946;SDS011;58605;48.700;8.760;2022-07-06T08:37:56;6.15;;;3.70;;
70946;SDS011;58605;48.700;8.760;2022-07-06T08:40:22;4.67;;;3.37;;
70946;SDS011;58605;48.700;8.760;2022-07-06T08:42:54;5.40;;;3.35;;
70946;SDS011;58605;48.700;8.760;2022-07-06T08:45:24;4.85;;;3.58;;
70946;SDS011;58605;48.700;8.760;2022-07-06T08:47:51;4.28;;;3.70;;
70946;SDS011;58605;48.700;8.760;2022-07-06T08:50:19;4.60;;;3.70;;
70946;SDS011;58605;48.700;8.760;2022-07-06T08:52:46;4.80;;;3.58;;
70946;SDS011;58605;48.700;8.760;2022-07-06T08:55:13;7.38;;;3.83;;
70946;SDS011;58605;48.700;8.760;2022-07-06T08:57:40;7.10;;;3.70;;
70946;SDS011;58605;48.700;8.760;2022-07-06T09:00:07;6.43;;;3.80;;
70946;SDS011;58605;48.700;8.760;2022-07-06T09:02:35;7.40;;;4.47;;
70946;SDS011;58605;48.700;8.760;2022-07-06T09:05:02;9.18;;;3.55;;
70946;SDS011;58605;48.700;8.760;2022-07-06T09:07:29;4.28;;;3.60;;
70946;SDS011;58605;48.700;8.760;2022-07-06T09:09:55;5.68;;;3.97;;
70946;SDS011;58605;48.700;8.760;2022-07-06T09:12:25;4.90;;;3.75;;
70946;SDS011;58605;48.700;8.760;2022-07-06T09:14:52;5.20;;;3.70;;
70946;SDS011;58605;48.700;8.760;2022-07-06T09:17:20;4.50;;;4.10;;
70946;SDS011;58605;48.700;8.760;2022-07-06T09:19:47;4.30;;;4.00;;
70946;SDS011;58605;48.700;8.760;2022-07-06T09:22:24;5.47;;;3.97;;
70946;SDS011;58605;48.700;8.760;2022-07-06T09:24:52;6.10;;;4.28;;
70946;SDS011;58605;48.700;8.760;2022-07-06T09:27:18;5.65;;;3.70;;
70946;SDS011;58605;48.700;8.760;2022-07-06T09:29:45;5.03;;;3.88;;
70946;SDS011;58605;48.700;8.760;2022-07-06T09:32:11;4.93;;;3.53;;
70946;SDS011;58605;48.700;8.760;2022-07-06T09:34:42;5.75;;;4.05;;
70946;SDS011;58605;48.700;8.760;2022-07-06T09:37:10;4.18;;;3.75;;
70946;SDS011;58605;48.700;8.760;2022-07-06T09:39:38;7.38;;;3.97;;
70946;SDS011;58605;48.700;8.760;2022-07-06T09:42:04;4.38;;;3.75;;
70946;SDS011;58605;48.700;8.760;2022-07-06T09:44:35;6.05;;;4.28;;
70946;SDS011;58605;48.700;8.760;2022-07-06T09:47:03;4.78;;;4.15;;
70946;SDS011;58605;48.700;8.760;2022-07-06T09:49:31;5.53;;;4.13;;
70946;SDS011;58605;48.700;8.760;2022-07-06T09:51:58;4.65;;;4.25;;
70946;SDS011;58605;48.700;8.760;2022-07-06T09:54:29;7.03;;;4.72;;
70946;SDS011;58605;48.700;8.760;2022-07-06T09:56:55;6.40;;;4.63;;
70946;SDS011;58605;48.700;8.760;2022-07-06T09:59:23;5.00;;;4.03;;
70946;SDS011;58605;48.700;8.760;2022-07-06T10:01:50;6.15;;;4.50;;
70946;SDS011;58605;48.700;8.760;2022-07-06T10:04:18;6.28;;;4.22;;
70946;SDS011;58605;48.700;8.760;2022-07-06T10:06:45;5.60;;;3.80;;
70946;SDS011;58605;48.700;8.760;2022-07-06T10:09:12;6.05;;;3.78;;
70946;SDS011;58605;48.700;8.760;2022-07-06T10:11:41;7.80;;;4.13;;
70946;SDS011;58605;48.700;8.760;2022-07-06T10:14:09;8.15;;;4.05;;
70946;SDS011;58605;48.700;8.760;2022-07-06T10:16:37;5.45;;;3.85;;
70946;SDS011;58605;48.700;8.760;2022-07-06T10:19:05;5.43;;;3.95;;
70946;SDS011;58605;48.700;8.760;2022-07-06T10:21:33;4.78;;;4.13;;
70946;SDS011;58605;48.700;8.760;2022-07-06T10:24:02;7.40;;;4.65;;
70946;SDS011;58605;48.700;8.760;2022-07-06T10:26:29;8.80;;;4.55;;
70946;SDS011;58605;48.700;8.760;2022-07-06T10:28:57;6.45;;;4.20;;
70946;SDS011;58605;48.700;8.760;2022-07-06T10:31:24;6.13;;;4.25;;
70946;SDS011;58605;48.700;8.760;2022-07-06T10:33:51;7.05;;;4.50;;
70946;SDS011;58605;48.700;8.760;2022-07-06T10:36:18;4.45;;;4.05;;
70946;SDS011;58605;48.700;8.760;2022-07-06T10:38:46;4.13;;;3.83;;
70946;SDS011;58605;48.700;8.760;2022-07-06T10:41:14;6.75;;;4.68;;
70946;SDS011;58605;48.700;8.760;2022-07-06T10:43:41;4.47;;;4.07;;
70946;SDS011;58605;48.700;8.760;2022-07-06T10:46:10;4.75;;;4.35;;
70946;SDS011;58605;48.700;8.760;2022-07-06T10:48:37;4.90;;;3.92;;
70946;SDS011;58605;48.700;8.760;2022-07-06T10:51:04;10.10;;;4.03;;
70946;SDS011;58605;48.700;8.760;2022-07-06T10:53:31;8.65;;;4.30;;
70946;SDS011;58605;48.700;8.760;2022-07-06T10:55:59;5.22;;;4.47;;
70946;SDS011;58605;48.700;8.760;2022-07-06T11:01:14;4.60;;;4.20;;
70946;SDS011;58605;48.700;8.760;2022-07-06T11:03:41;6.15;;;4.28;;
70946;SDS011;58605;48.700;8.760;2022-07-06T11:06:09;7.70;;;4.13;;
70946;SDS011;58605;48.700;8.760;2022-07-06T11:08:49;7.20;;;4.63;;
70946;SDS011;58605;48.700;8.760;2022-07-06T11:11:17;6.05;;;4.30;;
70946;SDS011;58605;48.700;8.760;2022-07-06T11:13:52;5.88;;;4.22;;
70946;SDS011;58605;48.700;8.760;2022-07-06T11:16:22;8.40;;;4.55;;
70946;SDS011;58605;48.700;8.760;2022-07-06T11:18:59;7.05;;;4.30;;
70946;SDS011;58605;48.700;8.760;2022-07-06T11:21:38;4.95;;;4.20;;
70946;SDS011;58605;48.700;8.760;2022-07-06T11:24:10;7.50;;;4.40;;
70946;SDS011;58605;48.700;8.760;2022-07-06T11:26:38;4.68;;;4.28;;
70946;SDS011;58605;48.700;8.760;2022-07-06T11:29:04;6.65;;;3.97;;
70946;SDS011;58605;48.700;8.760;2022-07-06T11:31:37;4.03;;;3.63;;
70946;SDS011;58605;48.700;8.760;2022-07-06T11:34:04;6.97;;;4.32;;
70946;SDS011;58605;48.700;8.760;2022-07-06T11:36:31;4.85;;;3.85;;
70946;SDS011;58605;48.700;8.760;2022-07-06T11:38:57;6.45;;;3.97;;
70946;SDS011;58605;48.700;8.760;2022-07-06T11:41:24;6.70;;;4.20;;
70946;SDS011;58605;48.700;8.760;2022-07-06T11:43:50;4.15;;;3.75;;
70946;SDS011;58605;48.700;8.760;2022-07-06T11:46:20;5.28;;;4.10;;
70946;SDS011;58605;48.700;8.760;2022-07-06T11:48:49;4.68;;;3.60;;
70946;SDS011;58605;48.700;8.760;2022-07-06T11:51:17;5.30;;;3.58;;
70946;SDS011;58605;48.700;8.760;2022-07-06T11:53:44;9.23;;;3.80;;
70946;SDS011;58605;48.700;8.760;2022-07-06T11:56:11;5.15;;;4.43;;
70946;SDS011;58605;48.700;8.760;2022-07-06T11:58:38;5.35;;;3.75;;
70946;SDS011;58605;48.700;8.760;2022-07-06T12:01:06;6.93;;;4.28;;
70946;SDS011;58605;48.700;8.760;2022-07-06T12:03:33;3.15;;;2.92;;
70946;SDS011;58605;48.700;8.760;2022-07-06T12:06:01;5.15;;;3.78;;
70946;SDS011;58605;48.700;8.760;2022-07-06T12:08:27;5.90;;;3.85;;
70946;SDS011;58605;48.700;8.760;2022-07-06T12:10:53;5.15;;;3.85;;
70946;SDS011;58605;48.700;8.760;2022-07-06T12:13:20;4.07;;;3.45;;
70946;SDS011;58605;48.700;8.760;2022-07-06T12:15:46;4.43;;;4.03;;
70946;SDS011;58605;48.700;8.760;2022-07-06T12:18:12;6.10;;;3.78;;
70946;SDS011;58605;48.700;8.760;2022-07-06T12:20:46;10.88;;;3.75;;
70946;SDS011;58605;48.700;8.760;2022-07-06T12:23:13;4.22;;;3.83;;
70946;SDS011;58605;48.700;8.760;2022-07-06T12:25:39;5.03;;;3.83;;
70946;SDS011;58605;48.700;8.760;2022-07-06T12:28:05;3.97;;;3.45;;
70946;SDS011;58605;48.700;8.760;2022-07-06T12:30:59;4.20;;;3.50;;
70946;SDS011;58605;48.700;8.760;2022-07-06T12:33:26;4.93;;;3.90;;
70946;SDS011;58605;48.700;8.760;2022-07-06T12:35:53;5.18;;;3.80;;
70946;SDS011;58605;48.700;8.760;2022-07-06T12:38:22;7.47;;;3.67;;
70946;SDS011;58605;48.700;8.760;2022-07-06T12:40:49;5.05;;;3.83;;
70946;SDS011;58605;48.700;8.760;2022-07-06T12:48:57;6.40;;;3.88;;
70946;SDS011;58605;48.700;8.760;2022-07-06T12:51:25;4.47;;;3.80;;
70946;SDS011;58605;48.700;8.760;2022-07-06T12:53:52;4.65;;;3.60;;
70946;SDS011;58605;48.700;8.760;2022-07-06T12:56:36;4.28;;;3.58;;
70946;SDS011;58605;48.700;8.760;2022-07-06T12:59:02;4.40;;;3.10;;
70946;SDS011;58605;48.700;8.760;2022-07-06T13:01:28;6.30;;;3.30;;
70946;SDS011;58605;48.700;8.760;2022-07-06T13:03:54;3.85;;;2.92;;
70946;SDS011;58605;48.700;8.760;2022-07-06T13:06:31;4.88;;;3.55;;
70946;SDS011;58605;48.700;8.760;2022-07-06T13:08:59;3.88;;;3.13;;
70946;SDS011;58605;48.700;8.760;2022-07-06T13:11:26;5.40;;;2.85;;
70946;SDS011;58605;48.700;8.760;2022-07-06T13:13:52;4.22;;;2.95;;
70946;SDS011;58605;48.700;8.760;2022-07-06T13:16:18;5.25;;;3.13;;
70946;SDS011;58605;48.700;8.760;2022-07-06T13:18:44;3.60;;;3.30;;
70946;SDS011;58605;48.700;8.760;2022-07-06T13:21:10;3.13;;;2.85;;
70946;SDS011;58605;48.700;8.760;2022-07-06T13:23:36;3.67;;;3.05;;
70946;SDS011;58605;48.700;8.760;2022-07-06T13:26:04;4.20;;;3.20;;
70946;SDS011;58605;48.700;8.760;2022-07-06T13:28:30;3.10;;;2.75;;
70946;SDS011;58605;48.700;8.760;2022-07-06T13:31:11;3.90;;;3.00;;
70946;SDS011;58605;48.700;8.760;2022-07-06T13:33:37;6.13;;;2.85;;
70946;SDS011;58605;48.700;8.760;2022-07-06T13:36:03;3.80;;;2.80;;
70946;SDS011;58605;48.700;8.760;2022-07-06T13:38:29;3.60;;;3.13;;
70946;SDS011;58605;48.700;8.760;2022-07-06T13:40:55;4.88;;;2.75;;
70946;SDS011;58605;48.700;8.760;2022-07-06T13:43:23;3.63;;;3.20;;
70946;SDS011;58605;48.700;8.760;2022-07-06T13:45:49;2.85;;;2.55;;
70946;SDS011;58605;48.700;8.760;2022-07-06T13:48:15;4.82;;;2.97;;
70946;SDS011;58605;48.700;8.760;2022-07-06T13:50:41;5.13;;;2.72;;
70946;SDS011;58605;48.700;8.760;2022-07-06T13:53:07;3.47;;;2.80;;
70946;SDS011;58605;48.700;8.760;2022-07-06T13:55:33;6.07;;;2.85;;
70946;SDS011;58605;48.700;8.760;2022-07-06T13:58:00;3.40;;;2.60;;
70946;SDS011;58605;48.700;8.760;2022-07-06T14:00:27;11.23;;;3.05;;
70946;SDS011;58605;48.700;8.760;2022-07-06T14:02:53;4.32;;;2.70;;
70946;SDS011;58605;48.700;8.760;2022-07-06T14:05:19;3.20;;;2.67;;
70946;SDS011;58605;48.700;8.760;2022-07-06T14:07:45;4.55;;;2.75;;
70946;SDS011;58605;48.700;8.760;2022-07-06T14:10:11;5.53;;;3.10;;
70946;SDS011;58605;48.700;8.760;2022-07-06T14:12:37;5.25;;;2.88;;
70946;SDS011;58605;48.700;8.760;2022-07-06T14:15:04;3.65;;;2.70;;
70946;SDS011;58605;48.700;8.760;2022-07-06T14:17:32;3.55;;;2.70;;
70946;SDS011;58605;48.700;8.760;2022-07-06T14:19:58;2.80;;;2.60;;
70946;SDS011;58605;48.700;8.760;2022-07-06T14:22:24;3.60;;;2.55;;
70946;SDS011;58605;48.700;8.760;2022-07-06T14:24:50;3.75;;;2.58;;
70946;SDS011;58605;48.700;8.760;2022-07-06T14:27:16;3.45;;;2.58;;
70946;SDS011;58605;48.700;8.760;2022-07-06T14:29:42;4.00;;;2.83;;
70946;SDS011;58605;48.700;8.760;2022-07-06T14:32:08;3.38;;;2.67;;
70946;SDS011;58605;48.700;8.760;2022-07-06T14:34:36;3.28;;;2.55;;
70946;SDS011;58605;48.700;8.760;2022-07-06T14:37:02;5.25;;;2.78;;
70946;SDS011;58605;48.700;8.760;2022-07-06T14:39:28;4.55;;;2.67;;
70946;SDS011;58605;48.700;8.760;2022-07-06T14:41:54;4.40;;;2.40;;
70946;SDS011;58605;48.700;8.760;2022-07-06T14:44:20;2.75;;;2.33;;
70946;SDS011;58605;48.700;8.760;2022-07-06T14:46:46;3.20;;;2.30;;
70946;SDS011;58605;48.700;8.760;2022-07-06T14:49:13;4.18;;;2.60;;
70946;SDS011;58605;48.700;8.760;2022-07-06T14:51:40;6.45;;;2.92;;
70946;SDS011;58605;48.700;8.760;2022-07-06T14:54:08;3.72;;;2.30;;
70946;SDS011;58605;48.700;8.760;2022-07-06T14:56:34;4.78;;;3.00;;